sensor_id;sensor_type;location;lat;lon;timestamp;pressure;altitude;pressure_sealevel;temperature;humidity
12536;BME280;6334;48.696;2.114;2023-01-25T00:01:42;101702.95;;;3.77;72.86
12536;BME280;6334;48.696;2.114;2023-01-25T00:04:12;101703.94;;;3.67;73.08
12536;BME280;6334;48.696;2.114;2023-01-25T00:06:43;101706.47;;;3.70;73.37
12536;BME280;6334;48.696;2.114;2023-01-25T00:09:14;101702.77;;;3.70;72.98
12536;BME280;6334;48.696;2.114;2023-01-25T00:11:44;101702.65;;;3.58;73.24
12536;BME280;6334;48.696;2.114;2023-01-25T00:14:14;101706.67;;;3.72;73.25
12536;BME280;6334;48.696;2.114;2023-01-25T00:16:45;101693.98;;;3.75;72.99
12536;BME280;6334;48.696;2.114;2023-01-25T00:19:15;101703.80;;;3.60;73.71
12536;BME280;6334;48.696;2.114;2023-01-25T00:21:46;101696.28;;;3.80;72.83
12536;BME280;6334;48.696;2.114;2023-01-25T00:24:16;101701.66;;;3.60;73.39
12536;BME280;6334;48.696;2.114;2023-01-25T00:26:47;101697.20;;;3.73;73.42
12536;BME280;6334;48.696;2.114;2023-01-25T00:29:17;101693.73;;;3.71;73.17
12536;BME280;6334;48.696;2.114;2023-01-25T00:31:57;101694.22;;;3.84;72.94
12536;BME280;6334;48.696;2.114;2023-01-25T00:37:09;101696.03;;;3.80;72.99
12536;BME280;6334;48.696;2.114;2023-01-25T00:39:32;101693.17;;;3.73;72.99
12536;BME280;6334;48.696;2.114;2023-01-25T00:42:03;101698.45;;;3.56;73.64
12536;BME280;6334;48.696;2.114;2023-01-25T00:44:33;101690.38;;;3.73;72.85
12536;BME280;6334;48.696;2.114;2023-01-25T00:47:04;101690.89;;;3.53;74.13
12536;BME280;6334;48.696;2.114;2023-01-25T00:49:34;101690.27;;;3.73;73.06
12536;BME280;6334;48.696;2.114;2023-01-25T00:52:05;101690.73;;;3.49;73.87
12536;BME280;6334;48.696;2.114;2023-01-25T00:54:35;101684.87;;;3.66;73.40
12536;BME280;6334;48.696;2.114;2023-01-25T00:57:06;101681.58;;;3.60;73.48
12536;BME280;6334;48.696;2.114;2023-01-25T00:59:36;101675.20;;;3.64;73.01
12536;BME280;6334;48.696;2.114;2023-01-25T01:02:06;101677.28;;;3.61;72.94
12536;BME280;6334;48.696;2.114;2023-01-25T01:04:37;101681.03;;;3.70;73.19
12536;BME280;6334;48.696;2.114;2023-01-25T01:07:07;101687.13;;;3.70;73.33
12536;BME280;6334;48.696;2.114;2023-01-25T01:09:38;101680.91;;;3.54;73.75
12536;BME280;6334;48.696;2.114;2023-01-25T01:12:08;101682.53;;;3.63;73.59
12536;BME280;6334;48.696;2.114;2023-01-25T01:14:39;101685.36;;;3.40;74.29
12536;BME280;6334;48.696;2.114;2023-01-25T01:17:11;101681.95;;;3.68;73.10
12536;BME280;6334;48.696;2.114;2023-01-25T01:19:42;101676.60;;;3.64;73.59
12536;BME280;6334;48.696;2.114;2023-01-25T01:22:12;101676.86;;;3.73;73.25
12536;BME280;6334;48.696;2.114;2023-01-25T01:24:43;101683.95;;;3.71;73.19
12536;BME280;6334;48.696;2.114;2023-01-25T01:27:14;101682.20;;;3.84;72.70
12536;BME280;6334;48.696;2.114;2023-01-25T01:29:44;101682.53;;;3.57;74.08
12536;BME280;6334;48.696;2.114;2023-01-25T01:32:15;101681.39;;;3.77;73.63
12536;BME280;6334;48.696;2.114;2023-01-25T01:34:45;101680.55;;;3.80;73.18
12536;BME280;6334;48.696;2.114;2023-01-25T01:37:15;101679.95;;;3.98;72.53
12536;BME280;6334;48.696;2.114;2023-01-25T01:39:46;101682.89;;;3.69;73.52
12536;BME280;6334;48.696;2.114;2023-01-25T01:42:16;101680.47;;;3.78;73.32
12536;BME280;6334;48.696;2.114;2023-01-25T01:44:50;101680.95;;;3.80;73.20
12536;BME280;6334;48.696;2.114;2023-01-25T01:47:30;101677.97;;;3.55;73.72
12536;BME280;6334;48.696;2.114;2023-01-25T01:50:03;101683.15;;;3.91;72.72
12536;BME280;6334;48.696;2.114;2023-01-25T01:52:31;101685.72;;;3.84;73.33
12536;BME280;6334;48.696;2.114;2023-01-25T01:55:09;101688.00;;;4.01;72.64
12536;BME280;6334;48.696;2.114;2023-01-25T01:57:55;101690.42;;;3.90;72.97
12536;BME280;6334;48.696;2.114;2023-01-25T02:00:27;101685.23;;;3.84;73.42
12536;BME280;6334;48.696;2.114;2023-01-25T02:02:54;101678.80;;;3.91;72.92
12536;BME280;6334;48.696;2.114;2023-01-25T02:07:58;101687.22;;;3.74;74.00
12536;BME280;6334;48.696;2.114;2023-01-25T02:10:28;101687.55;;;3.82;73.25
12536;BME280;6334;48.696;2.114;2023-01-25T02:12:59;101693.11;;;3.93;72.96
12536;BME280;6334;48.696;2.114;2023-01-25T02:15:32;101696.47;;;3.54;74.16
12536;BME280;6334;48.696;2.114;2023-01-25T02:18:00;101696.75;;;3.82;73.15
12536;BME280;6334;48.696;2.114;2023-01-25T02:20:41;101697.33;;;3.74;73.58
12536;BME280;6334;48.696;2.114;2023-01-25T02:25:47;101697.92;;;3.72;73.26
12536;BME280;6334;48.696;2.114;2023-01-25T02:28:25;101694.80;;;3.83;72.96
12536;BME280;6334;48.696;2.114;2023-01-25T02:30:51;101693.37;;;3.92;73.18
12536;BME280;6334;48.696;2.114;2023-01-25T02:33:25;101694.20;;;3.70;73.88
12536;BME280;6334;48.696;2.114;2023-01-25T02:38:40;101695.02;;;3.79;73.16
12536;BME280;6334;48.696;2.114;2023-01-25T02:41:11;101706.97;;;3.64;73.37
12536;BME280;6334;48.696;2.114;2023-01-25T02:43:39;101698.66;;;3.72;73.32
12536;BME280;6334;48.696;2.114;2023-01-25T02:48:40;101699.75;;;3.59;73.30
12536;BME280;6334;48.696;2.114;2023-01-25T02:51:13;101701.48;;;3.50;74.14
12536;BME280;6334;48.696;2.114;2023-01-25T02:53:43;101700.52;;;3.36;74.68
12536;BME280;6334;48.696;2.114;2023-01-25T02:56:15;101705.62;;;3.55;74.08
12536;BME280;6334;48.696;2.114;2023-01-25T02:58:45;101699.25;;;3.50;73.73
12536;BME280;6334;48.696;2.114;2023-01-25T03:01:16;101689.45;;;3.69;73.37
12536;BME280;6334;48.696;2.114;2023-01-25T03:03:46;101687.69;;;3.45;73.80
12536;BME280;6334;48.696;2.114;2023-01-25T03:06:17;101690.63;;;3.54;73.88
12536;BME280;6334;48.696;2.114;2023-01-25T03:08:48;101685.03;;;3.60;73.71
12536;BME280;6334;48.696;2.114;2023-01-25T03:11:19;101680.76;;;3.35;74.20
12536;BME280;6334;48.696;2.114;2023-01-25T03:13:49;101677.11;;;3.57;73.83
12536;BME280;6334;48.696;2.114;2023-01-25T03:16:20;101683.55;;;3.18;74.47
12536;BME280;6334;48.696;2.114;2023-01-25T03:18:53;101685.52;;;3.02;75.46
12536;BME280;6334;48.696;2.114;2023-01-25T03:21:23;101684.31;;;3.28;74.76
12536;BME280;6334;48.696;2.114;2023-01-25T03:23:57;101682.66;;;3.13;75.32
12536;BME280;6334;48.696;2.114;2023-01-25T03:26:25;101686.61;;;3.34;74.81
12536;BME280;6334;48.696;2.114;2023-01-25T03:28:55;101683.79;;;3.38;74.69
12536;BME280;6334;48.696;2.114;2023-01-25T03:31:25;101684.03;;;3.36;74.34
12536;BME280;6334;48.696;2.114;2023-01-25T03:33:56;101685.66;;;3.53;73.84
12536;BME280;6334;48.696;2.114;2023-01-25T03:36:26;101681.67;;;3.32;74.31
12536;BME280;6334;48.696;2.114;2023-01-25T03:38:56;101680.42;;;3.54;74.04
12536;BME280;6334;48.696;2.114;2023-01-25T03:41:27;101678.53;;;3.18;74.89
12536;BME280;6334;48.696;2.114;2023-01-25T03:43:56;101677.81;;;3.28;74.66
12536;BME280;6334;48.696;2.114;2023-01-25T03:46:27;101680.48;;;3.46;74.63
12536;BME280;6334;48.696;2.114;2023-01-25T03:48:57;101679.94;;;3.17;75.36
12536;BME280;6334;48.696;2.114;2023-01-25T03:51:28;101680.09;;;3.14;75.72
12536;BME280;6334;48.696;2.114;2023-01-25T03:53:58;101670.20;;;3.42;74.79
12536;BME280;6334;48.696;2.114;2023-01-25T03:56:30;101670.70;;;3.40;74.86
12536;BME280;6334;48.696;2.114;2023-01-25T03:59:00;101667.11;;;3.41;74.86
12536;BME280;6334;48.696;2.114;2023-01-25T04:01:31;101664.67;;;2.87;77.03
12536;BME280;6334;48.696;2.114;2023-01-25T04:04:01;101662.12;;;2.88;76.90
12536;BME280;6334;48.696;2.114;2023-01-25T04:06:32;101652.88;;;3.09;75.57
12536;BME280;6334;48.696;2.114;2023-01-25T04:09:02;101670.33;;;3.20;75.68
12536;BME280;6334;48.696;2.114;2023-01-25T04:11:33;101666.43;;;3.08;77.02
12536;BME280;6334;48.696;2.114;2023-01-25T04:14:03;101666.54;;;3.20;75.91
12536;BME280;6334;48.696;2.114;2023-01-25T04:16:34;101668.82;;;3.14;76.36
12536;BME280;6334;48.696;2.114;2023-01-25T04:19:04;101667.36;;;3.28;75.73
12536;BME280;6334;48.696;2.114;2023-01-25T04:21:34;101668.01;;;3.20;76.16
12536;BME280;6334;48.696;2.114;2023-01-25T04:24:05;101671.45;;;3.22;76.17
12536;BME280;6334;48.696;2.114;2023-01-25T04:26:35;101672.48;;;2.91;77.16
12536;BME280;6334;48.696;2.114;2023-01-25T04:29:08;101679.30;;;3.36;76.02
12536;BME280;6334;48.696;2.114;2023-01-25T04:31:38;101680.14;;;3.02;76.93
12536;BME280;6334;48.696;2.114;2023-01-25T04:34:09;101676.85;;;2.93;77.66
12536;BME280;6334;48.696;2.114;2023-01-25T04:36:40;101678.05;;;3.02;77.31
12536;BME280;6334;48.696;2.114;2023-01-25T04:39:10;101675.16;;;3.42;76.02
12536;BME280;6334;48.696;2.114;2023-01-25T04:41:40;101672.20;;;3.31;76.34
12536;BME280;6334;48.696;2.114;2023-01-25T04:44:11;101675.08;;;3.48;75.71
12536;BME280;6334;48.696;2.114;2023-01-25T04:46:41;101676.30;;;3.36;76.44
12536;BME280;6334;48.696;2.114;2023-01-25T04:49:12;101673.67;;;3.05;77.12
12536;BME280;6334;48.696;2.114;2023-01-25T04:51:42;101661.59;;;3.12;76.90
12536;BME280;6334;48.696;2.114;2023-01-25T04:54:13;101674.16;;;3.14;77.37
12536;BME280;6334;48.696;2.114;2023-01-25T04:56:43;101666.63;;;3.30;76.66
12536;BME280;6334;48.696;2.114;2023-01-25T04:59:14;101661.44;;;3.20;76.52
12536;BME280;6334;48.696;2.114;2023-01-25T05:01:44;101660.11;;;3.41;76.33
12536;BME280;6334;48.696;2.114;2023-01-25T05:04:15;101656.98;;;3.16;76.98
12536;BME280;6334;48.696;2.114;2023-01-25T05:06:45;101660.77;;;2.98;77.40
12536;BME280;6334;48.696;2.114;2023-01-25T05:09:16;101656.81;;;3.12;77.58
12536;BME280;6334;48.696;2.114;2023-01-25T05:11:46;101657.14;;;2.94;77.48
12536;BME280;6334;48.696;2.114;2023-01-25T05:14:16;101651.20;;;3.02;77.44
12536;BME280;6334;48.696;2.114;2023-01-25T05:16:47;101655.59;;;3.17;76.62
12536;BME280;6334;48.696;2.114;2023-01-25T05:19:17;101653.28;;;3.03;77.13
12536;BME280;6334;48.696;2.114;2023-01-25T05:21:48;101654.59;;;3.12;77.31
12536;BME280;6334;48.696;2.114;2023-01-25T05:24:25;101647.92;;;3.25;76.38
12536;BME280;6334;48.696;2.114;2023-01-25T05:26:55;101651.91;;;3.19;77.17
12536;BME280;6334;48.696;2.114;2023-01-25T05:29:38;101649.50;;;3.08;76.76
12536;BME280;6334;48.696;2.114;2023-01-25T05:32:07;101641.61;;;3.07;76.84
12536;BME280;6334;48.696;2.114;2023-01-25T05:34:37;101642.36;;;3.04;76.76
12536;BME280;6334;48.696;2.114;2023-01-25T05:37:08;101633.00;;;3.11;76.26
12536;BME280;6334;48.696;2.114;2023-01-25T05:39:38;101643.87;;;2.97;76.83
12536;BME280;6334;48.696;2.114;2023-01-25T05:42:14;101635.73;;;2.84;76.97
12536;BME280;6334;48.696;2.114;2023-01-25T05:44:42;101645.53;;;3.04;76.42
12536;BME280;6334;48.696;2.114;2023-01-25T05:47:12;101642.02;;;3.01;76.10
12536;BME280;6334;48.696;2.114;2023-01-25T05:49:42;101633.59;;;2.72;77.40
12536;BME280;6334;48.696;2.114;2023-01-25T05:52:13;101643.10;;;3.00;77.14
12536;BME280;6334;48.696;2.114;2023-01-25T05:54:43;101640.63;;;2.96;76.78
12536;BME280;6334;48.696;2.114;2023-01-25T05:57:13;101639.52;;;2.87;77.29
12536;BME280;6334;48.696;2.114;2023-01-25T05:59:43;101634.70;;;3.11;76.17
12536;BME280;6334;48.696;2.114;2023-01-25T06:02:14;101640.77;;;2.99;75.54
12536;BME280;6334;48.696;2.114;2023-01-25T06:04:44;101638.45;;;2.79;76.19
12536;BME280;6334;48.696;2.114;2023-01-25T06:07:15;101640.88;;;3.00;76.15
12536;BME280;6334;48.696;2.114;2023-01-25T06:09:45;101615.46;;;2.99;75.60
12536;BME280;6334;48.696;2.114;2023-01-25T06:12:18;101634.93;;;2.93;76.41
12536;BME280;6334;48.696;2.114;2023-01-25T06:14:48;101634.51;;;2.93;76.45
12536;BME280;6334;48.696;2.114;2023-01-25T06:17:18;101630.00;;;2.81;76.62
12536;BME280;6334;48.696;2.114;2023-01-25T06:19:48;101637.06;;;2.99;75.87
12536;BME280;6334;48.696;2.114;2023-01-25T06:22:18;101633.32;;;3.02;76.16
12536;BME280;6334;48.696;2.114;2023-01-25T06:24:48;101631.97;;;2.48;77.58
12536;BME280;6334;48.696;2.114;2023-01-25T06:27:19;101631.20;;;2.69;77.23
12536;BME280;6334;48.696;2.114;2023-01-25T06:29:49;101626.56;;;2.81;76.41
12536;BME280;6334;48.696;2.114;2023-01-25T06:32:19;101637.99;;;2.81;76.31
12536;BME280;6334;48.696;2.114;2023-01-25T06:34:49;101630.80;;;2.68;76.45
12536;BME280;6334;48.696;2.114;2023-01-25T06:37:20;101631.08;;;2.86;76.26
12536;BME280;6334;48.696;2.114;2023-01-25T06:39:50;101629.42;;;3.19;74.91
12536;BME280;6334;48.696;2.114;2023-01-25T06:42:22;101631.76;;;3.11;75.11
12536;BME280;6334;48.696;2.114;2023-01-25T06:44:51;101615.16;;;2.95;75.27
12536;BME280;6334;48.696;2.114;2023-01-25T06:47:22;101630.40;;;2.95;75.55
12536;BME280;6334;48.696;2.114;2023-01-25T06:49:52;101627.80;;;2.87;76.05
12536;BME280;6334;48.696;2.114;2023-01-25T06:52:23;101629.73;;;2.76;75.80
12536;BME280;6334;48.696;2.114;2023-01-25T06:54:53;101626.94;;;2.84;75.66
12536;BME280;6334;48.696;2.114;2023-01-25T06:57:24;101617.56;;;2.58;76.60
12536;BME280;6334;48.696;2.114;2023-01-25T06:59:54;101621.40;;;2.58;76.07
12536;BME280;6334;48.696;2.114;2023-01-25T07:02:25;101619.28;;;2.71;76.01
12536;BME280;6334;48.696;2.114;2023-01-25T07:04:55;101619.02;;;2.63;75.89
12536;BME280;6334;48.696;2.114;2023-01-25T07:07:25;101622.82;;;2.62;76.15
12536;BME280;6334;48.696;2.114;2023-01-25T07:09:56;101621.86;;;2.82;75.15
12536;BME280;6334;48.696;2.114;2023-01-25T07:12:29;101616.67;;;2.71;75.24
12536;BME280;6334;48.696;2.114;2023-01-25T07:15:00;101623.69;;;2.50;75.79
12536;BME280;6334;48.696;2.114;2023-01-25T07:17:30;101626.35;;;2.78;74.97
12536;BME280;6334;48.696;2.114;2023-01-25T07:20:00;101624.65;;;2.71;75.55
12536;BME280;6334;48.696;2.114;2023-01-25T07:22:32;101620.80;;;2.68;75.40
12536;BME280;6334;48.696;2.114;2023-01-25T07:25:02;101629.04;;;2.31;76.30
12536;BME280;6334;48.696;2.114;2023-01-25T07:27:33;101630.33;;;2.79;75.20
12536;BME280;6334;48.696;2.114;2023-01-25T07:30:04;101625.06;;;2.73;75.22
12536;BME280;6334;48.696;2.114;2023-01-25T07:32:34;101622.34;;;2.62;75.40
12536;BME280;6334;48.696;2.114;2023-01-25T07:35:05;101627.17;;;2.51;75.78
12536;BME280;6334;48.696;2.114;2023-01-25T07:37:35;101620.21;;;2.86;75.23
12536;BME280;6334;48.696;2.114;2023-01-25T07:40:06;101618.28;;;2.56;75.64
12536;BME280;6334;48.696;2.114;2023-01-25T07:42:38;101622.98;;;2.69;75.62
12536;BME280;6334;48.696;2.114;2023-01-25T07:45:08;101622.27;;;2.81;75.32
12536;BME280;6334;48.696;2.114;2023-01-25T07:47:39;101622.44;;;2.65;75.53
12536;BME280;6334;48.696;2.114;2023-01-25T07:50:09;101620.03;;;2.80;75.49
12536;BME280;6334;48.696;2.114;2023-01-25T07:52:40;101620.67;;;2.63;76.17
12536;BME280;6334;48.696;2.114;2023-01-25T07:55:10;101621.67;;;2.60;75.85
12536;BME280;6334;48.696;2.114;2023-01-25T07:57:41;101624.14;;;2.57;75.92
12536;BME280;6334;48.696;2.114;2023-01-25T08:00:11;101626.02;;;2.62;75.94
12536;BME280;6334;48.696;2.114;2023-01-25T08:02:42;101628.66;;;2.32;76.25
12536;BME280;6334;48.696;2.114;2023-01-25T08:05:20;101626.34;;;2.26;76.82
12536;BME280;6334;48.696;2.114;2023-01-25T08:15:51;101624.77;;;2.61;75.53
12536;BME280;6334;48.696;2.114;2023-01-25T08:18:15;101623.94;;;2.59;75.42
12536;BME280;6334;48.696;2.114;2023-01-25T08:20:45;101620.02;;;2.06;76.51
12536;BME280;6334;48.696;2.114;2023-01-25T08:23:23;101623.39;;;2.35;76.28
12536;BME280;6334;48.696;2.114;2023-01-25T08:26:22;101624.93;;;2.63;75.34
12536;BME280;6334;48.696;2.114;2023-01-25T08:29:31;101627.44;;;2.31;76.11
12536;BME280;6334;48.696;2.114;2023-01-25T08:32:01;101624.45;;;2.23;75.98
12536;BME280;6334;48.696;2.114;2023-01-25T08:34:31;101627.73;;;2.54;75.24
12536;BME280;6334;48.696;2.114;2023-01-25T08:37:02;101624.25;;;2.45;75.25
12536;BME280;6334;48.696;2.114;2023-01-25T08:39:32;101620.67;;;2.67;74.87
12536;BME280;6334;48.696;2.114;2023-01-25T08:42:03;101610.98;;;2.58;74.70
12536;BME280;6334;48.696;2.114;2023-01-25T08:44:33;101623.99;;;2.79;74.26
12536;BME280;6334;48.696;2.114;2023-01-25T08:47:04;101615.31;;;2.89;74.34
12536;BME280;6334;48.696;2.114;2023-01-25T08:49:34;101616.14;;;2.63;74.64
12536;BME280;6334;48.696;2.114;2023-01-25T08:52:04;101613.39;;;2.82;74.04
12536;BME280;6334;48.696;2.114;2023-01-25T08:54:35;101607.31;;;2.70;74.72
12536;BME280;6334;48.696;2.114;2023-01-25T08:57:06;101607.28;;;2.49;76.03
12536;BME280;6334;48.696;2.114;2023-01-25T08:59:50;101600.48;;;2.71;74.61
12536;BME280;6334;48.696;2.114;2023-01-25T09:02:21;101608.23;;;2.77;74.22
12536;BME280;6334;48.696;2.114;2023-01-25T09:04:54;101610.12;;;2.92;74.29
12536;BME280;6334;48.696;2.114;2023-01-25T09:07:26;101608.47;;;2.44;74.84
12536;BME280;6334;48.696;2.114;2023-01-25T09:09:57;101614.14;;;2.77;74.50
12536;BME280;6334;48.696;2.114;2023-01-25T09:12:27;101602.30;;;2.82;74.56
12536;BME280;6334;48.696;2.114;2023-01-25T09:14:57;101607.61;;;2.67;75.19
12536;BME280;6334;48.696;2.114;2023-01-25T09:17:29;101604.56;;;2.49;75.93
12536;BME280;6334;48.696;2.114;2023-01-25T09:19:58;101606.07;;;2.91;74.63
12536;BME280;6334;48.696;2.114;2023-01-25T09:22:29;101606.66;;;2.72;75.42
12536;BME280;6334;48.696;2.114;2023-01-25T09:25:05;101610.02;;;2.66;74.79
12536;BME280;6334;48.696;2.114;2023-01-25T09:27:32;101610.59;;;2.77;74.87
12536;BME280;6334;48.696;2.114;2023-01-25T09:30:03;101602.12;;;2.75;74.66
12536;BME280;6334;48.696;2.114;2023-01-25T09:32:35;101608.95;;;2.65;74.96
12536;BME280;6334;48.696;2.114;2023-01-25T09:35:08;101608.78;;;2.80;74.65
12536;BME280;6334;48.696;2.114;2023-01-25T09:37:48;101605.48;;;2.65;75.80
12536;BME280;6334;48.696;2.114;2023-01-25T09:43:05;101600.50;;;2.72;75.23
12536;BME280;6334;48.696;2.114;2023-01-25T09:45:37;101597.59;;;2.76;75.00
12536;BME280;6334;48.696;2.114;2023-01-25T09:51:02;101595.49;;;2.83;75.38
12536;BME280;6334;48.696;2.114;2023-01-25T09:53:39;101598.09;;;2.67;75.45
12536;BME280;6334;48.696;2.114;2023-01-25T09:56:28;101593.50;;;2.66;75.44
12536;BME280;6334;48.696;2.114;2023-01-25T09:59:28;101594.48;;;2.73;75.10
12536;BME280;6334;48.696;2.114;2023-01-25T10:02:12;101599.73;;;2.53;76.20
12536;BME280;6334;48.696;2.114;2023-01-25T10:04:42;101596.63;;;2.77;75.10
12536;BME280;6334;48.696;2.114;2023-01-25T10:07:18;101603.43;;;2.82;74.83
12536;BME280;6334;48.696;2.114;2023-01-25T10:09:52;101592.14;;;2.45;75.75
12536;BME280;6334;48.696;2.114;2023-01-25T10:12:21;101605.81;;;2.67;75.20
12536;BME280;6334;48.696;2.114;2023-01-25T10:14:51;101605.96;;;2.49;75.98
12536;BME280;6334;48.696;2.114;2023-01-25T10:17:25;101605.06;;;2.69;75.43
12536;BME280;6334;48.696;2.114;2023-01-25T10:22:49;101601.61;;;2.70;75.44
12536;BME280;6334;48.696;2.114;2023-01-25T10:33:19;101607.21;;;2.62;75.23
12536;BME280;6334;48.696;2.114;2023-01-25T10:35:49;101602.53;;;2.68;74.89
12536;BME280;6334;48.696;2.114;2023-01-25T10:41:06;101598.31;;;2.47;75.83
12536;BME280;6334;48.696;2.114;2023-01-25T10:43:34;101594.89;;;2.86;75.00
12536;BME280;6334;48.696;2.114;2023-01-25T10:46:20;101595.33;;;2.76;75.23
12536;BME280;6334;48.696;2.114;2023-01-25T10:48:46;101593.99;;;2.28;76.47
12536;BME280;6334;48.696;2.114;2023-01-25T10:51:32;101591.77;;;2.26;76.22
12536;BME280;6334;48.696;2.114;2023-01-25T10:54:02;101584.12;;;2.63;74.90
12536;BME280;6334;48.696;2.114;2023-01-25T10:56:29;101587.91;;;2.35;76.13
12536;BME280;6334;48.696;2.114;2023-01-25T10:59:21;101586.73;;;2.25;76.78
12536;BME280;6334;48.696;2.114;2023-01-25T11:01:50;101580.31;;;2.49;75.23
12536;BME280;6334;48.696;2.114;2023-01-25T11:04:22;101580.34;;;2.29;76.18
12536;BME280;6334;48.696;2.114;2023-01-25T11:06:51;101576.70;;;2.49;75.83
12536;BME280;6334;48.696;2.114;2023-01-25T11:09:31;101573.78;;;2.33;75.46
12536;BME280;6334;48.696;2.114;2023-01-25T11:12:14;101571.15;;;2.62;74.78
12536;BME280;6334;48.696;2.114;2023-01-25T11:14:34;101572.45;;;2.51;74.39
12536;BME280;6334;48.696;2.114;2023-01-25T11:17:19;101564.09;;;2.29;75.72
12536;BME280;6334;48.696;2.114;2023-01-25T11:19:36;101565.08;;;2.33;75.95
12536;BME280;6334;48.696;2.114;2023-01-25T11:24:48;101559.47;;;2.49;75.07
12536;BME280;6334;48.696;2.114;2023-01-25T11:27:25;101558.44;;;2.42;74.84
12536;BME280;6334;48.696;2.114;2023-01-25T11:30:10;101558.33;;;2.10;76.07
12536;BME280;6334;48.696;2.114;2023-01-25T11:32:40;101549.63;;;2.28;75.19
12536;BME280;6334;48.696;2.114;2023-01-25T11:35:14;101539.09;;;2.11;75.54
12536;BME280;6334;48.696;2.114;2023-01-25T11:43:02;101525.73;;;2.17;75.96
12536;BME280;6334;48.696;2.114;2023-01-25T11:45:38;101525.20;;;2.05;76.02
12536;BME280;6334;48.696;2.114;2023-01-25T11:51:05;101488.91;;;2.38;74.39
12536;BME280;6334;48.696;2.114;2023-01-25T11:56:40;101489.59;;;1.76;76.24
12536;BME280;6334;48.696;2.114;2023-01-25T11:59:14;101492.24;;;2.15;76.08
12536;BME280;6334;48.696;2.114;2023-01-25T12:04:40;101470.41;;;2.46;74.31
12536;BME280;6334;48.696;2.114;2023-01-25T12:07:12;101464.17;;;2.55;73.41
12536;BME280;6334;48.696;2.114;2023-01-25T12:09:55;101454.15;;;2.49;74.31
12536;BME280;6334;48.696;2.114;2023-01-25T12:16:25;101440.45;;;1.77;76.02
12536;BME280;6334;48.696;2.114;2023-01-25T12:28:28;101411.39;;;2.12;74.27
12536;BME280;6334;48.696;2.114;2023-01-25T12:37:52;101387.27;;;2.42;72.46
12536;BME280;6334;48.696;2.114;2023-01-25T12:50:33;101376.52;;;2.50;72.01
12536;BME280;6334;48.696;2.114;2023-01-25T12:53:31;101372.20;;;2.11;72.57
12536;BME280;6334;48.696;2.114;2023-01-25T12:58:50;101351.83;;;2.16;74.34
12536;BME280;6334;48.696;2.114;2023-01-25T13:05:26;101342.26;;;2.58;72.54
12536;BME280;6334;48.696;2.114;2023-01-25T13:08:05;101334.75;;;2.63;72.76
12536;BME280;6334;48.696;2.114;2023-01-25T13:10:44;101327.88;;;2.31;73.36
12536;BME280;6334;48.696;2.114;2023-01-25T13:13:28;101327.89;;;2.00;73.87
12536;BME280;6334;48.696;2.114;2023-01-25T13:16:39;101324.38;;;2.01;74.98
12536;BME280;6334;48.696;2.114;2023-01-25T13:24:25;101318.39;;;2.39;72.96
12536;BME280;6334;48.696;2.114;2023-01-25T13:41:17;101300.31;;;2.10;74.78
12536;BME280;6334;48.696;2.114;2023-01-25T13:48:28;101299.41;;;2.47;73.43
12536;BME280;6334;48.696;2.114;2023-01-25T13:51:08;101302.34;;;2.52;73.13
12536;BME280;6334;48.696;2.114;2023-01-25T13:53:35;101292.53;;;2.05;74.61
12536;BME280;6334;48.696;2.114;2023-01-25T13:56:20;101303.29;;;2.39;73.31
12536;BME280;6334;48.696;2.114;2023-01-25T13:58:44;101296.17;;;2.34;73.24
12536;BME280;6334;48.696;2.114;2023-01-25T14:01:17;101278.53;;;2.17;74.42
12536;BME280;6334;48.696;2.114;2023-01-25T14:03:40;101284.72;;;1.86;75.38
12536;BME280;6334;48.696;2.114;2023-01-25T14:06:18;101279.92;;;2.27;73.49
12536;BME280;6334;48.696;2.114;2023-01-25T14:08:46;101279.06;;;2.00;74.56
12536;BME280;6334;48.696;2.114;2023-01-25T14:11:20;101261.71;;;2.03;73.93
12536;BME280;6334;48.696;2.114;2023-01-25T14:13:57;101273.03;;;2.17;73.21
12536;BME280;6334;48.696;2.114;2023-01-25T14:16:27;101255.11;;;2.20;73.37
12536;BME280;6334;48.696;2.114;2023-01-25T14:19:18;101264.55;;;1.61;74.50
12536;BME280;6334;48.696;2.114;2023-01-25T14:21:28;101269.45;;;2.04;73.81
12536;BME280;6334;48.696;2.114;2023-01-25T14:24:07;101267.73;;;2.31;72.91
12536;BME280;6334;48.696;2.114;2023-01-25T14:26:31;101271.92;;;2.08;74.06
12536;BME280;6334;48.696;2.114;2023-01-25T14:32:19;101273.27;;;2.10;73.59
12536;BME280;6334;48.696;2.114;2023-01-25T14:34:38;101267.58;;;1.91;74.17
12536;BME280;6334;48.696;2.114;2023-01-25T14:37:41;101267.24;;;1.54;75.77
12536;BME280;6334;48.696;2.114;2023-01-25T14:43:35;101261.00;;;1.84;75.20
12536;BME280;6334;48.696;2.114;2023-01-25T14:56:43;101264.77;;;2.02;74.29
12536;BME280;6334;48.696;2.114;2023-01-25T15:01:08;101255.52;;;3.40;73.10
12536;BME280;6334;48.696;2.114;2023-01-25T15:06:54;101249.51;;;2.38;73.51
12536;BME280;6334;48.696;2.114;2023-01-25T15:11:32;101255.20;;;1.78;75.62
12536;BME280;6334;48.696;2.114;2023-01-25T15:18:51;101257.05;;;2.06;73.90
12536;BME280;6334;48.696;2.114;2023-01-25T15:24:58;101265.80;;;1.86;75.20
12536;BME280;6334;48.696;2.114;2023-01-25T15:27:31;101263.48;;;1.38;76.31
12536;BME280;6334;48.696;2.114;2023-01-25T15:30:03;101264.45;;;1.77;75.19
12536;BME280;6334;48.696;2.114;2023-01-25T15:32:45;101264.34;;;1.97;74.34
12536;BME280;6334;48.696;2.114;2023-01-25T15:35:18;101262.98;;;1.79;74.88
12536;BME280;6334;48.696;2.114;2023-01-25T15:37:47;101270.49;;;2.01;74.31
12536;BME280;6334;48.696;2.114;2023-01-25T15:40:18;101264.81;;;1.70;75.16
12536;BME280;6334;48.696;2.114;2023-01-25T15:43:03;101253.41;;;1.52;74.96
12536;BME280;6334;48.696;2.114;2023-01-25T15:45:25;101263.30;;;1.71;74.91
12536;BME280;6334;48.696;2.114;2023-01-25T15:47:57;101273.80;;;1.96;74.56
12536;BME280;6334;48.696;2.114;2023-01-25T15:50:26;101273.39;;;1.84;74.66
12536;BME280;6334;48.696;2.114;2023-01-25T15:52:57;101276.17;;;1.88;74.17
12536;BME280;6334;48.696;2.114;2023-01-25T15:55:28;101270.81;;;1.26;76.34
12536;BME280;6334;48.696;2.114;2023-01-25T15:58:08;101277.58;;;1.82;73.87
12536;BME280;6334;48.696;2.114;2023-01-25T16:08:27;101271.50;;;1.40;75.80
12536;BME280;6334;48.696;2.114;2023-01-25T16:10:56;101271.23;;;1.23;76.09
12536;BME280;6334;48.696;2.114;2023-01-25T16:13:27;101267.52;;;1.63;75.14
12536;BME280;6334;48.696;2.114;2023-01-25T16:15:57;101268.39;;;1.81;74.46